Time;durP1;ratioP1;P1;durP2;ratioP2;P2;SDS_P1;SDS_P2;PMS_P1;PMS_P2;Temp;Humidity;BMP_temperature;BMP_pressure;BME280_temperature;BME280_humidity;BME280_pressure;Samples;Min_cycle;Max_cycle;Signal;HPM_P1;HPM_P2
2021/05/10 00:00:49;;;;;;;3.23;1.50;;;16.00;55.30;;;;;;2072738;28;20181;-65
2021/05/10 00:01:50;;;;;;;1.58;1.30;;;16.00;55.50;;;;;;2072474;28;20178;-65
2021/05/10 00:02:50;;;;;;;1.60;1.17;;;16.00;55.60;;;;;;2072647;28;20216;-65
2021/05/10 00:03:51;;;;;;;2.23;1.30;;;16.00;56.10;;;;;;2072563;28;20187;-66
2021/05/10 00:04:52;;;;;;;2.23;1.40;;;16.00;55.30;;;;;;2072720;28;20189;-65
2021/05/10 00:05:53;;;;;;;2.63;1.13;;;15.90;55.60;;;;;;2072567;28;20212;-65
2021/05/10 00:06:53;;;;;;;1.67;1.40;;;15.90;55.40;;;;;;2072745;28;20205;-64
2021/05/10 00:07:54;;;;;;;2.40;1.43;;;15.90;55.50;;;;;;2072686;28;20224;-65
2021/05/10 00:08:56;;;;;;;1.90;1.50;;;15.90;56.00;;;;;;2072798;28;20196;-64
2021/05/10 00:09:58;;;;;;;1.75;1.23;;;15.80;56.70;;;;;;2072074;28;20186;-64
2021/05/10 00:10:59;;;;;;;2.20;1.50;;;15.80;56.90;;;;;;2072179;28;20472;-65
2021/05/10 00:11:59;;;;;;;2.07;1.30;;;15.80;56.90;;;;;;2072318;28;20500;-65
2021/05/10 00:13:02;;;;;;;2.63;1.37;;;15.80;57.20;;;;;;2072740;28;20463;-65
2021/05/10 00:14:05;;;;;;;1.67;1.20;;;15.70;57.40;;;;;;2072770;28;20185;-65
2021/05/10 00:15:07;;;;;;;2.80;1.30;;;15.70;57.40;;;;;;2080896;28;20201;-64
2021/05/10 00:16:08;;;;;;;1.65;1.30;;;15.70;57.40;;;;;;2081603;28;20597;-64
2021/05/10 00:17:09;;;;;;;2.40;1.30;;;15.60;57.40;;;;;;2074300;28;20204;-64
2021/05/10 00:18:11;;;;;;;1.40;1.20;;;15.60;58.20;;;;;;2074369;28;20193;-65
2021/05/10 00:19:12;;;;;;;2.80;1.30;;;15.60;58.20;;;;;;2074230;28;20255;-65
2021/05/10 00:20:13;;;;;;;1.80;1.40;;;15.60;57.60;;;;;;2074139;28;20431;-65
2021/05/10 00:21:14;;;;;;;2.63;1.58;;;15.60;58.50;;;;;;2074185;28;20189;-65
2021/05/10 00:22:15;;;;;;;1.97;1.30;;;15.60;59.20;;;;;;2074215;28;20229;-65
2021/05/10 00:23:17;;;;;;;3.43;1.33;;;15.60;60.50;;;;;;2074129;28;20228;-65
2021/05/10 00:24:18;;;;;;;1.88;1.30;;;15.50;63.10;;;;;;2074329;28;20223;-64
2021/05/10 00:25:19;;;;;;;1.67;1.33;;;15.50;60.70;;;;;;2074304;28;20196;-65
2021/05/10 00:26:19;;;;;;;1.67;1.30;;;15.50;60.70;;;;;;2074350;28;20181;-64
2021/05/10 00:27:20;;;;;;;3.13;1.40;;;15.50;62.40;;;;;;2074585;28;20180;-65
2021/05/10 00:28:21;;;;;;;2.03;1.42;;;15.40;63.90;;;;;;2074226;28;20255;-64
2021/05/10 00:29:22;;;;;;;1.83;1.25;;;15.40;64.70;;;;;;2074420;28;20266;-65
2021/05/10 00:30:24;;;;;;;2.80;1.63;;;15.30;64.80;;;;;;2073688;28;20176;-65
2021/05/10 00:31:25;;;;;;;1.65;1.40;;;15.30;65.10;;;;;;2073727;28;20183;-65
2021/05/10 00:32:26;;;;;;;2.67;1.20;;;15.20;64.40;;;;;;2073851;28;20189;-64
2021/05/10 00:33:26;;;;;;;1.60;1.20;;;15.20;67.60;;;;;;2074347;28;20273;-65
2021/05/10 00:34:27;;;;;;;1.37;1.20;;;15.10;68.10;;;;;;2074274;28;20236;-65
2021/05/10 00:35:28;;;;;;;2.63;1.37;;;15.10;64.50;;;;;;2074176;28;20563;-65
2021/05/10 00:36:29;;;;;;;1.77;1.30;;;15.00;67.10;;;;;;2074211;28;20196;-63
2021/05/10 00:37:29;;;;;;;3.73;1.20;;;14.90;67.90;;;;;;2074352;28;20210;-62
2021/05/10 00:38:30;;;;;;;2.17;1.20;;;14.90;69.80;;;;;;2074248;28;20660;-63
2021/05/10 00:39:31;;;;;;;1.80;1.40;;;14.90;71.30;;;;;;2074258;28;20188;-63
2021/05/10 00:40:33;;;;;;;3.07;1.20;;;14.70;78.80;;;;;;2074303;28;20255;-62
2021/05/10 00:41:35;;;;;;;1.38;1.27;;;14.60;78.10;;;;;;2073994;28;20236;-64
2021/05/10 00:42:36;;;;;;;3.50;1.38;;;14.50;75.70;;;;;;2073623;28;20182;-64
2021/05/10 00:43:37;;;;;;;1.73;1.20;;;14.40;72.20;;;;;;2073768;28;20210;-64
2021/05/10 00:44:38;;;;;;;2.40;1.47;;;14.50;71.50;;;;;;2074267;28;20178;-66
2021/05/10 00:45:38;;;;;;;3.87;1.90;;;14.50;75.50;;;;;;2074055;28;20200;-64
2021/05/10 00:46:42;;;;;;;2.53;1.20;;;14.50;76.90;;;;;;2074227;28;20174;-65
2021/05/10 00:47:43;;;;;;;1.40;1.30;;;14.50;78.40;;;;;;2074048;28;20209;-65
2021/05/10 00:48:44;;;;;;;3.10;1.27;;;14.40;81.40;;;;;;2074150;28;20257;-64
2021/05/10 00:49:44;;;;;;;2.13;1.30;;;14.30;90.50;;;;;;2073945;28;20543;-65
2021/05/10 00:50:45;;;;;;;3.83;1.50;;;14.30;82.60;;;;;;2073461;28;20185;-66
2021/05/10 00:51:46;;;;;;;1.35;1.25;;;14.20;81.10;;;;;;2073193;28;20745;-65
2021/05/10 00:52:47;;;;;;;2.13;1.40;;;14.30;78.40;;;;;;2074048;28;20181;-65
2021/05/10 00:53:48;;;;;;;1.83;1.50;;;14.30;77.50;;;;;;2074023;28;20228;-64
2021/05/10 00:54:50;;;;;;;2.40;1.40;;;14.30;82.50;;;;;;2074318;28;20920;-64
2021/05/10 00:55:51;;;;;;;2.08;1.40;;;14.20;83.40;;;;;;2073816;28;20185;-64
2021/05/10 00:56:52;;;;;;;3.00;1.40;;;14.20;83.30;;;;;;2074097;28;20184;-64
2021/05/10 00:58:01;;;;;;;2.53;1.30;;;14.20;77.90;;;;;;2073389;28;20182;-64
2021/05/10 00:59:03;;;;;;;2.15;1.50;;;14.20;85.30;;;;;;2066680;28;20173;-64
2021/05/10 01:00:07;;;;;;;2.67;1.20;;;14.20;77.60;;;;;;2073480;28;20247;-64
2021/05/10 01:01:08;;;;;;;3.25;1.70;;;14.20;80.20;;;;;;2073836;28;20185;-64
2021/05/10 01:02:09;;;;;;;4.33;1.20;;;14.20;87.40;;;;;;2073843;28;20705;-64
2021/05/10 01:03:11;;;;;;;1.67;1.40;;;14.20;79.70;;;;;;2074085;28;20464;-64
2021/05/10 01:04:11;;;;;;;2.63;1.40;;;14.20;83.00;;;;;;2074062;28;20185;-64
2021/05/10 01:05:14;;;;;;;2.03;1.30;;;14.20;82.30;;;;;;2073776;28;20229;-65
2021/05/10 01:06:15;;;;;;;1.63;1.35;;;14.10;84.50;;;;;;2073791;28;20593;-64
2021/05/10 01:07:16;;;;;;;2.70;1.40;;;14.20;86.10;;;;;;2073984;28;20178;-64
2021/05/10 01:08:17;;;;;;;5.37;1.40;;;14.10;87.00;;;;;;2073923;28;20533;-65
2021/05/10 01:09:18;;;;;;;1.47;1.37;;;14.10;88.90;;;;;;2073809;28;20194;-64
2021/05/10 01:10:21;;;;;;;2.13;1.20;;;14.00;84.20;;;;;;2073852;28;20209;-64
2021/05/10 01:11:22;;;;;;;4.22;1.52;;;14.00;91.00;;;;;;2073725;28;20383;-64
2021/05/10 01:12:23;;;;;;;2.67;1.47;;;13.90;91.30;;;;;;2073892;28;20263;-65
2021/05/10 01:13:23;;;;;;;2.73;1.40;;;13.80;92.30;;;;;;2073985;28;20178;-64
2021/05/10 01:14:24;;;;;;;1.60;1.30;;;13.80;92.30;;;;;;2073210;28;20197;-65
2021/05/10 01:15:30;;;;;;;2.20;1.30;;;13.70;91.20;;;;;;2073237;28;20193;-64
2021/05/10 01:16:30;;;;;;;2.17;1.50;;;13.70;88.40;;;;;;2073815;28;20217;-64
2021/05/10 01:17:31;;;;;;;2.93;1.50;;;13.70;91.90;;;;;;2074026;28;20259;-64
2021/05/10 01:18:33;;;;;;;1.75;1.50;;;13.60;89.30;;;;;;2073950;28;20185;-64
2021/05/10 01:19:35;;;;;;;1.83;1.30;;;13.70;92.90;;;;;;2074038;28;20181;-64
2021/05/10 01:20:37;;;;;;;3.30;1.30;;;13.70;88.30;;;;;;2073301;28;20190;-64
2021/05/10 01:21:38;;;;;;;1.30;1.20;;;13.70;85.80;;;;;;2073255;28;20209;-65
2021/05/10 01:22:42;;;;;;;2.60;1.33;;;13.80;86.70;;;;;;2073726;28;20210;-64
2021/05/10 01:23:44;;;;;;;3.20;1.23;;;13.80;88.60;;;;;;2073372;28;20697;-64
2021/05/10 01:24:45;;;;;;;2.22;1.40;;;13.80;86.60;;;;;;2073291;28;20692;-64
2021/05/10 01:25:46;;;;;;;1.80;1.37;;;13.80;84.90;;;;;;2073169;28;20257;-64
2021/05/10 01:26:47;;;;;;;2.22;1.40;;;13.80;83.70;;;;;;2073194;28;20631;-64
2021/05/10 01:27:49;;;;;;;3.20;1.50;;;13.80;83.10;;;;;;2073137;28;20182;-65
2021/05/10 01:28:50;;;;;;;1.80;1.20;;;13.90;85.80;;;;;;2073424;28;20256;-65
2021/05/10 01:29:51;;;;;;;5.43;1.58;;;13.80;87.00;;;;;;2073915;28;20665;-64
2021/05/10 01:30:51;;;;;;;1.53;1.40;;;13.80;88.20;;;;;;2073776;28;20188;-64
2021/05/10 01:31:52;;;;;;;2.27;1.47;;;13.80;88.00;;;;;;2073632;28;20284;-65
2021/05/10 01:32:55;;;;;;;3.20;1.30;;;13.70;85.50;;;;;;2073565;28;20185;-64
2021/05/10 01:33:55;;;;;;;3.55;1.30;;;13.80;86.20;;;;;;2073881;28;20267;-64
2021/05/10 01:34:56;;;;;;;2.67;1.47;;;13.70;94.00;;;;;;2073647;28;20178;-64
2021/05/10 01:35:57;;;;;;;2.17;1.60;;;13.70;92.50;;;;;;2073861;28;20273;-64
2021/05/10 01:36:58;;;;;;;5.03;1.47;;;13.60;92.10;;;;;;2073610;28;20664;-64
2021/05/10 01:37:59;;;;;;;2.03;1.50;;;13.60;93.00;;;;;;2073836;28;20691;-65
2021/05/10 01:39:00;;;;;;;3.63;1.38;;;13.60;93.30;;;;;;2073622;28;20219;-64
2021/05/10 01:40:01;;;;;;;3.33;1.40;;;13.50;92.80;;;;;;2073863;28;20198;-65
2021/05/10 01:41:02;;;;;;;2.97;1.43;;;13.40;93.00;;;;;;2081302;28;20193;-64
2021/05/10 01:42:03;;;;;;;3.07;1.43;;;13.40;93.80;;;;;;2081175;28;20284;-64
2021/05/10 01:43:05;;;;;;;2.40;1.40;;;13.30;94.30;;;;;;2073708;28;20217;-65
2021/05/10 01:44:06;;;;;;;3.60;1.20;;;13.30;94.80;;;;;;2073838;28;20189;-66
2021/05/10 01:45:09;;;;;;;5.78;1.42;;;13.20;92.10;;;;;;2073710;28;20285;-64
2021/05/10 01:46:09;;;;;;;2.25;1.30;;;13.20;93.00;;;;;;2073747;28;20181;-65
2021/05/10 01:47:10;;;;;;;2.20;1.30;;;13.20;93.60;;;;;;2073710;28;20208;-64
2021/05/10 01:48:13;;;;;;;1.87;1.47;;;13.20;93.10;;;;;;2073538;28;20224;-65
2021/05/10 01:49:13;;;;;;;2.58;1.35;;;13.10;93.00;;;;;;2073712;28;20213;-64
2021/05/10 01:50:20;;;;;;;3.63;1.37;;;13.10;93.60;;;;;;2073577;28;20637;-65
2021/05/10 01:51:27;;;;;;;2.33;1.30;;;13.10;94.00;;;;;;2073530;28;20236;-65
2021/05/10 01:52:27;;;;;;;2.28;1.30;;;13.10;92.70;;;;;;2073492;28;20169;-64
2021/05/10 01:53:28;;;;;;;2.13;1.23;;;13.20;91.90;;;;;;2073569;28;20291;-64
2021/05/10 01:54:29;;;;;;;1.87;1.40;;;13.20;93.40;;;;;;2073546;28;20177;-65
2021/05/10 01:55:30;;;;;;;1.83;1.20;;;13.20;94.50;;;;;;2073642;28;20587;-64
2021/05/10 01:56:34;;;;;;;2.30;1.50;;;13.20;95.30;;;;;;2073462;28;20649;-64
2021/05/10 01:57:36;;;;;;;3.25;1.45;;;13.10;95.30;;;;;;2073610;28;20259;-65
2021/05/10 01:58:36;;;;;;;2.53;1.38;;;13.00;95.20;;;;;;2073476;28;20603;-64
2021/05/10 01:59:37;;;;;;;1.67;1.30;;;13.10;95.00;;;;;;2073443;28;20181;-64
2021/05/10 02:00:46;;;;;;;2.93;1.57;;;13.10;92.80;;;;;;2075805;28;20178;-64
2021/05/10 02:01:47;;;;;;;2.40;1.50;;;13.20;91.10;;;;;;2073361;28;20266;-64
2021/05/10 02:02:48;;;;;;;2.92;1.60;;;13.30;90.30;;;;;;2073250;28;20189;-64
2021/05/10 02:03:48;;;;;;;2.13;1.20;;;13.40;86.90;;;;;;2073602;28;20526;-65
2021/05/10 02:05:06;;;;;;;4.23;1.30;;;13.50;87.30;;;;;;2073494;28;20593;-65
2021/05/10 02:06:06;;;;;;;4.40;1.65;;;13.60;84.00;;;;;;2073437;28;20583;-64
2021/05/10 02:07:07;;;;;;;2.53;1.30;;;13.70;78.30;;;;;;2073573;28;20181;-65
2021/05/10 02:08:10;;;;;;;2.73;1.60;;;13.90;79.30;;;;;;2073460;28;20178;-65
2021/05/10 02:09:11;;;;;;;1.60;1.30;;;13.90;80.80;;;;;;2072994;28;20182;-64
2021/05/10 02:10:18;;;;;;;4.63;1.60;;;13.90;86.80;;;;;;2071749;28;20220;-64
2021/05/10 02:11:19;;;;;;;1.98;1.20;;;13.80;92.30;;;;;;2069859;28;20178;-65
2021/05/10 02:12:20;;;;;;;2.47;1.30;;;13.80;88.80;;;;;;2073420;28;20695;-64
2021/05/10 02:13:23;;;;;;;2.20;1.30;;;13.70;89.70;;;;;;2073499;28;20186;-64
2021/05/10 02:14:24;;;;;;;2.00;1.50;;;13.70;89.50;;;;;;2073374;28;20192;-64
2021/05/10 02:15:28;;;;;;;2.10;1.27;;;13.60;90.20;;;;;;2073389;28;20197;-65
2021/05/10 02:16:29;;;;;;;2.75;1.63;;;13.60;91.00;;;;;;2073415;28;20182;-65
2021/05/10 02:17:29;;;;;;;2.53;1.60;;;13.50;93.00;;;;;;2073672;28;20265;-65
2021/05/10 02:18:34;;;;;;;2.23;1.70;;;13.40;93.90;;;;;;2073331;28;20178;-62
2021/05/10 02:19:35;;;;;;;1.83;1.50;;;13.30;94.80;;;;;;2073570;28;20185;-64
2021/05/10 02:20:36;;;;;;;3.20;1.67;;;13.10;95.20;;;;;;2073348;28;20186;-65
2021/05/10 02:21:38;;;;;;;3.45;1.30;;;13.00;96.10;;;;;;2073183;28;20182;-65
2021/05/10 02:22:38;;;;;;;3.10;1.75;;;12.90;95.70;;;;;;2072612;28;20189;-64
2021/05/10 02:23:39;;;;;;;2.63;1.60;;;12.80;96.30;;;;;;2072729;28;20193;-64
2021/05/10 02:24:40;;;;;;;3.27;1.60;;;12.80;96.60;;;;;;2073467;28;20611;-65
2021/05/10 02:25:45;;;;;;;1.73;1.53;;;12.70;97.10;;;;;;2073183;28;20190;-66
2021/05/10 02:26:46;;;;;;;1.67;1.52;;;12.70;97.50;;;;;;2073514;28;20574;-67
2021/05/10 02:27:47;;;;;;;1.90;1.50;;;12.70;98.60;;;;;;2073180;28;20190;-64
2021/05/10 02:28:47;;;;;;;2.13;1.40;;;12.60;97.40;;;;;;2073437;28;20621;-64
2021/05/10 02:29:48;;;;;;;1.50;1.30;;;12.60;96.50;;;;;;2073268;28;20182;-65
2021/05/10 02:30:50;;;;;;;4.13;1.63;;;12.70;96.50;;;;;;2073318;28;20205;-65
2021/05/10 02:31:50;;;;;;;2.95;1.52;;;12.70;96.10;;;;;;2072468;28;20174;-64
2021/05/10 02:32:53;;;;;;;2.83;1.40;;;12.70;97.10;;;;;;2072567;28;20536;-64
2021/05/10 02:33:54;;;;;;;2.65;1.40;;;12.80;94.40;;;;;;2072644;28;20174;-64
2021/05/10 02:34:55;;;;;;;2.10;1.33;;;12.90;96.20;;;;;;2072645;28;20209;-65
2021/05/10 02:35:56;;;;;;;2.27;1.60;;;13.00;95.00;;;;;;2073199;28;20174;-65
2021/05/10 02:36:57;;;;;;;2.08;1.40;;;13.10;93.30;;;;;;2072661;28;20220;-64
2021/05/10 02:37:58;;;;;;;3.15;1.70;;;13.10;94.30;;;;;;2072051;28;20173;-65
2021/05/10 02:38:59;;;;;;;1.33;1.23;;;13.30;91.70;;;;;;2073044;28;20196;-64
2021/05/10 02:40:00;;;;;;;3.03;1.77;;;13.40;91.20;;;;;;2073166;28;20178;-64
2021/05/10 02:41:00;;;;;;;2.63;1.17;;;13.50;89.50;;;;;;2073263;28;20173;-64
2021/05/10 02:42:01;;;;;;;2.17;1.40;;;13.60;86.80;;;;;;2072794;28;20189;-65
2021/05/10 02:43:05;;;;;;;1.23;1.10;;;13.80;86.50;;;;;;2073260;28;20209;-64
2021/05/10 02:44:07;;;;;;;2.67;1.30;;;13.90;87.50;;;;;;2072979;28;20185;-65
2021/05/10 02:45:10;;;;;;;1.88;1.20;;;13.80;85.70;;;;;;2073235;28;20687;-65
2021/05/10 02:46:10;;;;;;;2.90;1.30;;;13.90;84.30;;;;;;2073027;28;20623;-64
2021/05/10 02:47:11;;;;;;;2.37;1.30;;;14.00;85.20;;;;;;2073226;28;20232;-65
2021/05/10 02:48:14;;;;;;;2.20;1.50;;;14.00;87.40;;;;;;2073065;28;20566;-64
2021/05/10 02:49:14;;;;;;;4.47;1.60;;;14.00;89.00;;;;;;2073093;28;20189;-64
2021/05/10 02:50:19;;;;;;;2.00;1.20;;;14.00;90.60;;;;;;2073016;28;20554;-65
2021/05/10 02:51:20;;;;;;;1.40;1.30;;;14.10;86.60;;;;;;2072945;28;20177;-65
2021/05/10 02:52:21;;;;;;;1.50;1.23;;;14.10;96.30;;;;;;2073214;28;20182;-65
2021/05/10 02:53:22;;;;;;;2.72;1.50;;;14.10;88.60;;;;;;2073183;28;20663;-65
2021/05/10 02:54:22;;;;;;;2.23;1.20;;;14.20;86.60;;;;;;2073097;28;20198;-64
2021/05/10 02:55:24;;;;;;;1.97;1.20;;;14.40;84.10;;;;;;2072284;28;20201;-64
2021/05/10 02:56:24;;;;;;;1.90;1.30;;;14.50;82.20;;;;;;2072573;28;20189;-64
2021/05/10 02:57:26;;;;;;;1.43;1.33;;;14.60;81.60;;;;;;2073056;28;20598;-65
2021/05/10 02:58:26;;;;;;;1.52;1.30;;;14.60;80.70;;;;;;2073000;28;20715;-64
2021/05/10 02:59:27;;;;;;;4.13;1.27;;;14.70;82.70;;;;;;2073033;28;20182;-65
2021/05/10 03:00:28;;;;;;;1.77;1.10;;;14.80;77.20;;;;;;2073007;28;20207;-65
2021/05/10 03:01:29;;;;;;;4.28;1.20;;;14.90;73.70;;;;;;2072955;28;20304;-64
2021/05/10 03:02:30;;;;;;;1.87;1.23;;;15.10;68.90;;;;;;2072966;28;20594;-64
2021/05/10 03:03:31;;;;;;;1.30;1.20;;;15.30;65.90;;;;;;2073028;28;20248;-65
2021/05/10 03:04:31;;;;;;;2.23;1.20;;;15.40;65.80;;;;;;2072961;28;20186;-64
2021/05/10 03:05:32;;;;;;;1.57;1.17;;;15.50;63.50;;;;;;2072909;28;20223;-65
2021/05/10 03:06:33;;;;;;;1.50;1.13;;;15.60;64.10;;;;;;2072899;28;20205;-65
2021/05/10 03:07:35;;;;;;;2.40;1.17;;;15.60;64.40;;;;;;2073159;28;20177;-65
2021/05/10 03:08:35;;;;;;;2.78;1.20;;;15.80;62.60;;;;;;2072360;28;20179;-65
2021/05/10 03:09:36;;;;;;;1.10;1.00;;;15.90;60.80;;;;;;2072429;28;20266;-64
2021/05/10 03:10:37;;;;;;;1.63;1.23;;;15.90;59.80;;;;;;2072315;28;20179;-65
2021/05/10 03:11:37;;;;;;;1.27;1.00;;;16.00;59.60;;;;;;2072047;28;20173;-65
2021/05/10 03:12:39;;;;;;;1.37;1.27;;;16.10;59.80;;;;;;2073045;28;20177;-64
2021/05/10 03:13:40;;;;;;;1.27;1.00;;;16.10;59.30;;;;;;2073132;28;20208;-62
2021/05/10 03:14:41;;;;;;;3.30;1.10;;;16.10;59.50;;;;;;2073075;28;20180;-62
2021/05/10 03:15:41;;;;;;;1.30;0.90;;;16.10;59.20;;;;;;2072845;28;20664;-63
2021/05/10 03:16:42;;;;;;;3.27;1.20;;;16.20;57.90;;;;;;2073078;28;20273;-64
2021/05/10 03:17:43;;;;;;;2.97;1.10;;;16.30;57.80;;;;;;2072948;28;20213;-64
2021/05/10 03:18:44;;;;;;;1.70;0.98;;;16.40;57.20;;;;;;2072964;28;20177;-64
2021/05/10 03:19:45;;;;;;;2.53;1.10;;;16.40;56.60;;;;;;2072851;28;20220;-64
2021/05/10 03:20:45;;;;;;;2.80;1.20;;;16.60;55.20;;;;;;2073021;28;20177;-65
2021/05/10 03:21:46;;;;;;;2.47;1.20;;;16.70;55.00;;;;;;2072721;28;20689;-65
2021/05/10 03:22:51;;;;;;;2.23;1.00;;;16.80;54.70;;;;;;2072804;28;20173;-64
2021/05/10 03:23:52;;;;;;;1.17;1.03;;;16.90;54.40;;;;;;2072451;28;20190;-65
2021/05/10 03:24:52;;;;;;;1.43;1.10;;;16.90;54.00;;;;;;2072328;28;20855;-64
2021/05/10 03:25:53;;;;;;;1.63;1.00;;;17.00;53.70;;;;;;2072879;28;20182;-64
2021/05/10 03:26:54;;;;;;;1.57;1.10;;;17.00;53.60;;;;;;2073073;28;20169;-64
2021/05/10 03:27:54;;;;;;;2.47;1.20;;;17.10;53.50;;;;;;2073008;28;20215;-64
2021/05/10 03:28:55;;;;;;;1.37;1.03;;;17.00;53.80;;;;;;2072873;28;20188;-65
2021/05/10 03:29:56;;;;;;;1.17;1.00;;;17.00;54.00;;;;;;2072230;28;20257;-64
2021/05/10 03:30:56;;;;;;;1.00;0.87;;;17.00;54.40;;;;;;2072392;28;20178;-65
2021/05/10 03:31:57;;;;;;;3.37;1.27;;;16.90;54.60;;;;;;2072727;28;20178;-64
2021/05/10 03:32:58;;;;;;;2.20;1.00;;;17.00;54.10;;;;;;2073040;28;20174;-64
2021/05/10 03:33:59;;;;;;;2.37;1.30;;;17.00;53.80;;;;;;2072725;28;20236;-65
2021/05/10 03:35:00;;;;;;;2.53;1.30;;;17.00;54.30;;;;;;2072351;28;20244;-64
2021/05/10 03:36:00;;;;;;;3.43;1.30;;;17.00;54.10;;;;;;2072263;28;20425;-65
2021/05/10 03:37:01;;;;;;;2.20;1.27;;;17.00;53.80;;;;;;2073171;28;20184;-64
2021/05/10 03:38:02;;;;;;;2.33;1.30;;;17.00;54.40;;;;;;2072834;28;20637;-65
2021/05/10 03:39:04;;;;;;;2.40;1.20;;;16.90;55.90;;;;;;2072897;28;20184;-65
2021/05/10 03:40:08;;;;;;;1.83;1.07;;;16.90;55.10;;;;;;2072763;28;20221;-64
2021/05/10 03:41:09;;;;;;;1.63;1.00;;;17.00;55.60;;;;;;2072885;28;20439;-64
2021/05/10 03:42:09;;;;;;;1.33;0.90;;;16.90;57.20;;;;;;2071744;28;20913;-65
2021/05/10 03:43:10;;;;;;;2.57;1.10;;;16.90;58.70;;;;;;2072854;28;20221;-65
2021/05/10 03:44:11;;;;;;;1.30;1.20;;;16.90;56.80;;;;;;2072859;28;20182;-65
2021/05/10 03:45:13;;;;;;;2.37;1.20;;;16.90;56.30;;;;;;2072685;28;20640;-65
2021/05/10 03:46:14;;;;;;;1.15;0.90;;;16.80;56.90;;;;;;2072868;28;20548;-62
2021/05/10 03:47:15;;;;;;;2.27;1.13;;;16.80;56.80;;;;;;2072895;28;20187;-62
2021/05/10 03:48:16;;;;;;;3.13;1.20;;;16.80;57.40;;;;;;2072948;28;20182;-62
2021/05/10 03:49:16;;;;;;;3.53;1.10;;;16.80;56.30;;;;;;2072917;28;20185;-63
2021/05/10 03:50:20;;;;;;;2.47;1.00;;;16.70;55.80;;;;;;2073944;28;20184;-62
2021/05/10 03:51:21;;;;;;;2.77;1.10;;;16.70;57.00;;;;;;2074434;28;20636;-63
2021/05/10 03:52:21;;;;;;;2.03;1.17;;;16.80;56.60;;;;;;2074500;28;20508;-62
2021/05/10 03:53:23;;;;;;;2.37;1.10;;;16.70;58.40;;;;;;2074591;28;20287;-63
2021/05/10 03:54:24;;;;;;;2.13;1.20;;;16.70;58.70;;;;;;2074512;28;20646;-63
2021/05/10 03:55:25;;;;;;;1.33;1.17;;;16.60;61.60;;;;;;2074558;28;20447;-62
2021/05/10 03:56:26;;;;;;;1.95;1.05;;;16.50;62.70;;;;;;2074288;28;20184;-65
2021/05/10 03:57:26;;;;;;;1.17;1.07;;;16.50;61.60;;;;;;2074593;28;20272;-65
2021/05/10 03:58:27;;;;;;;2.77;1.50;;;16.30;63.00;;;;;;2074609;28;20185;-64
2021/05/10 03:59:28;;;;;;;2.27;1.30;;;16.30;62.30;;;;;;2073850;28;20204;-65
2021/05/10 04:00:29;;;;;;;2.33;1.10;;;16.30;64.60;;;;;;2073846;28;20432;-65
2021/05/10 04:01:30;;;;;;;3.53;1.00;;;16.20;69.20;;;;;;2074219;28;20186;-65
2021/05/10 04:02:31;;;;;;;2.13;1.00;;;16.20;67.60;;;;;;2074505;28;20239;-65
2021/05/10 04:04:03;;;;;;;3.43;1.20;;;16.10;68.00;;;;;;2074467;28;20288;-65
2021/05/10 04:05:11;;;;;;;3.40;1.10;;;16.00;71.20;;;;;;2073738;28;20479;-65
2021/05/10 04:06:22;;;;;;;1.35;1.10;;;15.90;69.60;;;;;;2074467;28;20641;-64
2021/05/10 04:09:53;;;;;;;3.13;1.08;;;15.80;78.40;;;;;;2074373;28;20172;-65
2021/05/10 04:11:04;;;;;;;1.65;1.27;;;15.70;83.90;;;;;;2074550;28;20253;-65
2021/05/10 04:14:35;;;;;;;3.10;1.33;;;15.50;82.40;;;;;;2074670;28;20173;-65
2021/05/10 04:15:35;;;;;;;2.40;1.43;;;15.50;82.00;;;;;;2074369;28;20309;-64
2021/05/10 04:16:36;;;;;;;3.13;1.67;;;15.40;82.40;;;;;;2074836;28;20256;-64
2021/05/10 04:17:37;;;;;;;3.57;1.30;;;15.40;78.10;;;;;;2074241;28;20191;-65
2021/05/10 04:18:37;;;;;;;2.70;1.37;;;15.30;81.20;;;;;;2074056;28;20194;-65
2021/05/10 04:19:38;;;;;;;3.10;1.27;;;15.40;82.60;;;;;;2074096;28;20775;-65
2021/05/10 04:20:39;;;;;;;1.97;1.20;;;15.30;85.50;;;;;;2074453;28;20269;-64
2021/05/10 04:21:39;;;;;;;4.93;1.37;;;15.30;91.30;;;;;;2074191;28;20178;-64
2021/05/10 04:22:40;;;;;;;2.47;1.20;;;15.30;91.20;;;;;;2074153;28;20236;-64
2021/05/10 04:23:41;;;;;;;2.40;1.20;;;15.20;91.60;;;;;;2074006;28;20182;-65
2021/05/10 04:24:42;;;;;;;2.25;1.13;;;15.20;91.50;;;;;;2073865;28;20174;-65
2021/05/10 04:25:47;;;;;;;2.20;1.20;;;15.20;91.30;;;;;;2073885;28;20202;-65
2021/05/10 04:26:48;;;;;;;2.90;1.00;;;15.10;91.80;;;;;;2074015;28;20565;-65
2021/05/10 04:27:48;;;;;;;1.50;1.10;;;15.10;91.10;;;;;;2073991;28;20176;-64
2021/05/10 04:28:49;;;;;;;2.87;1.17;;;15.10;91.10;;;;;;2074058;28;20638;-64
2021/05/10 04:29:49;;;;;;;1.87;1.00;;;15.10;92.10;;;;;;2073874;28;20233;-64
2021/05/10 04:30:52;;;;;;;2.23;1.33;;;15.10;90.50;;;;;;2074032;28;20173;-65
2021/05/10 04:31:53;;;;;;;2.53;1.30;;;15.10;91.60;;;;;;2073727;28;20177;-65
2021/05/10 04:32:58;;;;;;;1.80;1.03;;;15.10;91.90;;;;;;2073948;28;20177;-65
2021/05/10 04:33:59;;;;;;;4.85;1.30;;;15.10;85.30;;;;;;2073871;28;20190;-64
2021/05/10 04:35:00;;;;;;;4.17;1.17;;;15.10;92.00;;;;;;2073805;28;20180;-65
2021/05/10 04:36:01;;;;;;;2.70;1.10;;;15.20;90.90;;;;;;2073927;28;20542;-64
2021/05/10 04:37:02;;;;;;;1.85;1.10;;;15.20;93.60;;;;;;2073942;28;20196;-65
2021/05/10 04:38:08;;;;;;;5.83;1.10;;;15.10;92.30;;;;;;2074050;28;20192;-65
2021/05/10 04:39:09;;;;;;;2.67;1.42;;;15.10;91.80;;;;;;2074108;28;20166;-64
2021/05/10 04:40:10;;;;;;;1.50;1.20;;;15.10;92.90;;;;;;2073964;28;20717;-65
2021/05/10 04:41:11;;;;;;;5.10;1.70;;;15.00;93.60;;;;;;2073972;28;20252;-64
2021/05/10 04:42:12;;;;;;;6.13;3.47;;;15.00;93.10;;;;;;2073954;28;20193;-65
2021/05/10 04:43:13;;;;;;;3.97;2.40;;;14.90;92.80;;;;;;2073769;28;20296;-65
2021/05/10 04:44:13;;;;;;;2.80;1.43;;;14.80;93.10;;;;;;2073969;28;20186;-64
2021/05/10 04:45:14;;;;;;;3.07;1.90;;;14.80;93.20;;;;;;2073876;28;20292;-65
2021/05/10 04:46:15;;;;;;;3.20;1.70;;;14.80;93.30;;;;;;2073802;28;20261;-64
2021/05/10 04:47:16;;;;;;;1.60;1.40;;;14.80;94.10;;;;;;2073798;28;20186;-64
2021/05/10 04:48:17;;;;;;;4.50;1.70;;;14.80;94.10;;;;;;2074034;28;20205;-64
2021/05/10 04:49:17;;;;;;;2.77;1.90;;;14.90;95.70;;;;;;2074053;28;20428;-64
2021/05/10 04:50:18;;;;;;;3.87;1.50;;;14.90;94.80;;;;;;2074132;28;20182;-64
2021/05/10 04:51:19;;;;;;;4.33;1.50;;;14.90;94.50;;;;;;2073808;28;20284;-64
2021/05/10 04:52:20;;;;;;;1.93;1.43;;;14.90;95.50;;;;;;2074053;28;20649;-64
2021/05/10 04:53:20;;;;;;;2.60;1.50;;;14.90;95.20;;;;;;2074002;28;20244;-65
2021/05/10 04:54:21;;;;;;;2.40;1.50;;;14.90;95.10;;;;;;2074348;28;20189;-64
2021/05/10 04:55:22;;;;;;;2.17;1.50;;;14.80;94.80;;;;;;2073927;28;20679;-65
2021/05/10 04:56:23;;;;;;;5.07;2.03;;;14.80;94.80;;;;;;2074200;28;20186;-67
2021/05/10 04:57:23;;;;;;;2.07;1.50;;;14.80;96.10;;;;;;2073916;28;20552;-64
2021/05/10 04:58:24;;;;;;;2.17;1.33;;;14.90;96.40;;;;;;2074240;28;20182;-64
2021/05/10 04:59:25;;;;;;;3.27;1.40;;;14.90;96.40;;;;;;2074049;28;20182;-65
2021/05/10 05:00:25;;;;;;;4.90;1.50;;;14.90;97.90;;;;;;2073871;28;20178;-64
2021/05/10 05:01:26;;;;;;;2.40;1.43;;;14.90;98.40;;;;;;2073542;28;20316;-63
2021/05/10 05:02:27;;;;;;;2.00;1.13;;;15.00;98.00;;;;;;2074178;28;20182;-62
2021/05/10 05:03:27;;;;;;;2.93;1.50;;;14.90;98.20;;;;;;2073822;28;20214;-64
2021/05/10 05:04:28;;;;;;;3.70;1.60;;;14.90;99.50;;;;;;2074140;28;20210;-65
2021/05/10 05:05:29;;;;;;;2.70;1.93;;;14.90;98.90;;;;;;2073919;28;20205;-65
2021/05/10 05:06:30;;;;;;;3.93;2.33;;;14.90;98.40;;;;;;2087088;22;22164;-67
2021/05/10 05:07:30;;;;;;;2.83;2.30;;;14.90;98.30;;;;;;2073152;28;20240;-67
2021/05/10 05:08:31;;;;;;;5.50;2.40;;;14.90;98.30;;;;;;2072916;28;20184;-67
2021/05/10 05:09:32;;;;;;;3.20;1.70;;;14.80;98.90;;;;;;2073942;28;20679;-67
2021/05/10 05:10:32;;;;;;;2.57;1.70;;;14.90;99.00;;;;;;2073923;28;20185;-67
2021/05/10 05:11:33;;;;;;;2.73;1.73;;;14.90;99.30;;;;;;2073861;28;20583;-67
2021/05/10 05:12:37;;;;;;;3.17;1.90;;;14.90;99.20;;;;;;2073849;28;20178;-67
2021/05/10 05:13:38;;;;;;;2.60;2.35;;;15.00;99.00;;;;;;2073815;28;20179;-67
2021/05/10 05:14:39;;;;;;;4.72;2.28;;;15.00;99.00;;;;;;2073784;28;20181;-67
2021/05/10 05:15:40;;;;;;;4.50;2.13;;;14.90;99.00;;;;;;2073496;28;20173;-68
2021/05/10 05:16:40;;;;;;;3.00;2.50;;;15.00;98.90;;;;;;2073506;28;20661;-68
2021/05/10 05:17:41;;;;;;;4.77;2.80;;;14.90;99.00;;;;;;2073964;28;20371;-68
2021/05/10 05:18:42;;;;;;;5.20;2.53;;;14.90;99.70;;;;;;2073709;28;20221;-68
2021/05/10 05:19:43;;;;;;;4.80;2.20;;;14.90;99.60;;;;;;2066283;28;20198;-68
2021/05/10 05:20:44;;;;;;;6.93;3.20;;;14.90;99.90;;;;;;2065644;28;20182;-68
2021/05/10 05:21:44;;;;;;;6.67;2.90;;;15.00;99.00;;;;;;2064965;28;20584;-68
2021/05/10 05:22:45;;;;;;;6.50;3.60;;;15.00;99.20;;;;;;2056908;28;20422;-68
2021/05/10 05:23:46;;;;;;;5.20;3.33;;;15.00;98.90;;;;;;2064932;28;20607;-68
2021/05/10 05:24:47;;;;;;;3.43;2.83;;;15.00;98.70;;;;;;2062208;28;20270;-68
2021/05/10 05:25:57;;;;;;;5.47;2.80;;;15.10;98.00;;;;;;2057654;28;20234;-68